Armstrong, Alabama
Current Conditions -  °F | °C
As of 11:15 AM on Sunday 21 Dec 2014 (Local Time) from KAUO Reporting Station
Overcast Overcast  
Wind Chill: 45°   Ceiling: 1000
Heat Index: 48°   Visibility: 10mi
Dew Point: 43°   Wind: 7mph
Humidity: 82%   Direction: 60°ENE
Pressure: 30.16"   Gusts: NA
Location:  32.2227°N, 85.6394°W
Report Text: KAUO 211715Z AUTO 06006KT 10SM OVC010 09/06 A3016 RMK AO1
Loading
Personal Weather Stations






























Interactive Weather Map New forecast layout! Learn more

10-Day Weather Forecast

Advertisements
Track Severe Weather on mobile